Карточка аэропорта UNWW

Внимание!
Информация на этой странице в стадии наполнения.
Если вы не увидели какой-то информации, или заметили неточность - пожалуйста сообщите нам!
Спасибо!
Команда RU-STAFF
Название аэропортаСпиченково
Название аэропорта (англ.)Spichenkovo
Превышение1023 ft. (311.8 m.)
Координаты53°48.714', 86°52.704'
Высота перехода800m
Эшелон переходаFL050
Коды ответчика5270-5277
Зона ОрВДНовосибирск РПИ (UNNT)
Данные METARUNWW 031530Z 19005MPS 9999 BKN026 M09/M12 Q1023 R19/920247 NOSIG RMK QFE740
Проноз погоды (TAF)UNWW 031400Z 0315/0415 22003G08MPS 8000 -SHSN BKN039CB BECMG 0316/0319 18003G08MPS BKN016CB TEMPO 0319/0405 BKN005 BKN016CB BECMG 0405/0407 20007G14MPS BECMG 0407/0411 1500 SHSN DRSN BKN005 BKN016CB BECMG 0412/0414 8000 -SHSN BKN016CB
NOTAMshow/hide NOTAM
AWOS   TABLE

Информация о ВПП

ВПП Длина ВПП (м.) Покрытие Курс ВПП Частота ILS
012679Цементобетон14 
192679Цементобетон194111.1

Диспетчерские позиции

Позывной Наименование органа УВД Частота
UNWW_APPНовокузнецк-Подход118.6
UNWW_TWRНовокузнецк-Старт121.2



Спутниковое изображение